ACA5 EGKK-CYYC
Flight info
| Callsign | ACA5 |
|---|---|
| Flight time | N/A |
| Altitude | 36000 |
| Route | LAM6M LAM UN57 TNT UL28 AGLIL M146 LUSOD DCT GOMUP/M082F360 DCT RAPAX DCT ANABI/M083F380 DCT DA/M076F280 UW28 SF/M082F380 DCT DARUB/N0477F380 DCT YXP DCT SAVAT DCT YEK/N0485F400 J540 YVC DCT DUDNI BIRKO6 |
| Aircraft | B77L/H-SDE1E2E3FGHIJ2J3J4J5M1RWXY/LB1D1 |
Departure
| Time | 2026-04-14 16:40 |
|---|---|
| Airport | London Gatwick Airport (EGKK) |
Arrival
| Time | N/A |
|---|---|
| Airport | Calgary International Airport (CYYC) |
| Time | Latitude | Longitude | Altitude | Speed | Heading |
|---|---|---|---|---|---|
| 2026-04-14 15:35 | 51.15968 | -0.17123 | 221 ft | 0 kts | 315° |
| 2026-04-14 16:01 | 51.15959 | -0.17109 | 221 ft | 3 kts | 315° |
| 2026-04-14 16:01 | 51.15946 | -0.17088 | 221 ft | 3 kts | 315° |
| 2026-04-14 16:01 | 51.15933 | -0.17064 | 217 ft | 3 kts | 283° |
| 2026-04-14 16:02 | 51.15933 | -0.17032 | 218 ft | 3 kts | 237° |
| 2026-04-14 16:02 | 51.15939 | -0.17020 | 223 ft | 0 kts | 224° |
| 2026-04-14 16:08 | 51.15919 | -0.17042 | 217 ft | 7 kts | 208° |
| 2026-04-14 16:09 | 51.15874 | -0.17068 | 215 ft | 7 kts | 195° |
| 2026-04-14 16:09 | 51.15827 | -0.17078 | 211 ft | 7 kts | 180° |
| 2026-04-14 16:09 | 51.15758 | -0.17062 | 212 ft | 13 kts | 168° |
| 2026-04-14 16:09 | 51.15655 | -0.17056 | 216 ft | 15 kts | 210° |
| 2026-04-14 16:10 | 51.15620 | -0.17210 | 213 ft | 15 kts | 259° |
| 2026-04-14 16:10 | 51.15593 | -0.17355 | 217 ft | 10 kts | 254° |
| 2026-04-14 16:10 | 51.15587 | -0.17384 | 218 ft | 0 kts | 252° |
| 2026-04-14 16:10 | 51.15588 | -0.17383 | 219 ft | 1 kts | 252° |
| 2026-04-14 16:11 | 51.15596 | -0.17341 | 215 ft | 1 kts | 252° |
| 2026-04-14 16:11 | 51.15592 | -0.17359 | 217 ft | 0 kts | 252° |
| 2026-04-14 16:11 | 51.15605 | -0.17298 | 214 ft | 7 kts | 252° |
| 2026-04-14 16:11 | 51.15574 | -0.17330 | 219 ft | 13 kts | 195° |
| 2026-04-14 16:12 | 51.15487 | -0.17291 | 217 ft | 13 kts | 165° |
| 2026-04-14 16:12 | 51.15481 | -0.17289 | 220 ft | 0 kts | 167° |
| 2026-04-14 16:13 | 51.15464 | -0.17283 | 216 ft | 9 kts | 167° |
| 2026-04-14 16:13 | 51.15460 | -0.17281 | 220 ft | 0 kts | 167° |
| 2026-04-14 16:18 | 51.15450 | -0.17277 | 209 ft | 4 kts | 167° |
| 2026-04-14 16:18 | 51.15407 | -0.17262 | 217 ft | 9 kts | 167° |
| 2026-04-14 16:18 | 51.15338 | -0.17237 | 216 ft | 10 kts | 167° |
| 2026-04-14 16:18 | 51.15294 | -0.17217 | 217 ft | 0 kts | 160° |
| 2026-04-14 16:19 | 51.15292 | -0.17216 | 217 ft | 1 kts | 160° |
| 2026-04-14 16:19 | 51.15263 | -0.17157 | 215 ft | 9 kts | 98° |
| 2026-04-14 16:19 | 51.15266 | -0.17097 | 213 ft | 0 kts | 79° |
| 2026-04-14 16:20 | 51.15267 | -0.17092 | 213 ft | 2 kts | 79° |
| 2026-04-14 16:20 | 51.15268 | -0.17077 | 210 ft | 0 kts | 78° |
| 2026-04-14 16:26 | 51.15272 | -0.17051 | 217 ft | 12 kts | 79° |
| 2026-04-14 16:27 | 51.15274 | -0.17029 | 217 ft | 0 kts | 79° |
| 2026-04-14 16:27 | 51.15276 | -0.17017 | 216 ft | 5 kts | 78° |
| 2026-04-14 16:27 | 51.15278 | -0.17002 | 212 ft | 2 kts | 77° |
| 2026-04-14 16:28 | 51.15284 | -0.16962 | 206 ft | 0 kts | 78° |
| 2026-04-14 16:28 | 51.15287 | -0.16940 | 209 ft | 0 kts | 78° |
| 2026-04-14 16:31 | 51.15287 | -0.16939 | 210 ft | 1 kts | 78° |
| 2026-04-14 16:31 | 51.15291 | -0.16906 | 216 ft | 6 kts | 81° |
| 2026-04-14 16:31 | 51.15286 | -0.16860 | 216 ft | 0 kts | 114° |
| 2026-04-14 16:38 | 51.15283 | -0.16852 | 216 ft | 3 kts | 123° |
| 2026-04-14 16:38 | 51.15257 | -0.16824 | 211 ft | 5 kts | 156° |
| 2026-04-14 16:38 | 51.15248 | -0.16819 | 206 ft | 0 kts | 161° |
| 2026-04-14 16:38 | 51.15247 | -0.16819 | 206 ft | 0 kts | 161° |
| 2026-04-14 16:39 | 51.15233 | -0.16811 | 215 ft | 7 kts | 163° |
| 2026-04-14 16:39 | 51.15146 | -0.16802 | 209 ft | 14 kts | 200° |
| 2026-04-14 16:39 | 51.15101 | -0.16938 | 217 ft | 18 kts | 257° |
| 2026-04-14 16:40 | 51.15012 | -0.17567 | 219 ft | 105 kts | 258° |
| 2026-04-14 16:40 | 51.14790 | -0.19140 | 365 ft | 173 kts | 252° |
| 2026-04-14 16:40 | 51.14507 | -0.21143 | 1180 ft | 199 kts | 253° |
| 2026-04-14 16:40 | 51.14203 | -0.23433 | 2181 ft | 214 kts | 252° |
| 2026-04-14 16:41 | 51.13901 | -0.25737 | 3189 ft | 212 kts | 253° |
| 2026-04-14 16:41 | 51.13682 | -0.28039 | 3827 ft | 215 kts | 266° |
| 2026-04-14 16:41 | 51.14108 | -0.30393 | 4005 ft | 233 kts | 300° |
| 2026-04-14 16:41 | 51.15364 | -0.32100 | 4009 ft | 246 kts | 333° |
| 2026-04-14 16:42 | 51.17053 | -0.32557 | 3998 ft | 253 kts | 6° |
| 2026-04-14 16:42 | 51.18686 | -0.31517 | 4022 ft | 260 kts | 43° |
| 2026-04-14 16:42 | 51.19685 | -0.29090 | 4473 ft | 270 kts | 78° |
| 2026-04-14 16:42 | 51.19934 | -0.26092 | 5008 ft | 277 kts | 90° |
| 2026-04-14 16:43 | 51.20130 | -0.22976 | 4991 ft | 285 kts | 86° |
| 2026-04-14 16:43 | 51.20384 | -0.19904 | 4979 ft | 281 kts | 85° |
| 2026-04-14 16:43 | 51.20746 | -0.16846 | 4995 ft | 279 kts | 82° |
| 2026-04-14 16:43 | 51.21159 | -0.13812 | 4985 ft | 280 kts | 81° |
| 2026-04-14 16:44 | 51.21570 | -0.10784 | 4991 ft | 279 kts | 82° |
| 2026-04-14 16:44 | 51.21975 | -0.07754 | 5023 ft | 279 kts | 82° |
| 2026-04-14 16:44 | 51.22374 | -0.04745 | 5355 ft | 276 kts | 82° |
| 2026-04-14 16:45 | 51.23178 | 0.01416 | 6341 ft | 293 kts | 81° |
| 2026-04-14 16:45 | 51.23593 | 0.04610 | 6806 ft | 294 kts | 81° |
| 2026-04-14 16:45 | 51.24007 | 0.07802 | 7284 ft | 293 kts | 81° |
| 2026-04-14 16:45 | 51.24419 | 0.10971 | 7770 ft | 292 kts | 81° |
| 2026-04-14 16:46 | 51.24830 | 0.14157 | 8259 ft | 293 kts | 81° |
| 2026-04-14 16:46 | 51.25238 | 0.17341 | 8774 ft | 293 kts | 81° |
| 2026-04-14 16:46 | 51.25645 | 0.20541 | 9271 ft | 296 kts | 82° |
| 2026-04-14 16:46 | 51.26030 | 0.23793 | 9817 ft | 300 kts | 82° |
| 2026-04-14 16:47 | 51.26413 | 0.27073 | 10292 ft | 301 kts | 81° |
| 2026-04-14 16:47 | 51.26800 | 0.30376 | 10760 ft | 305 kts | 82° |
| 2026-04-14 16:47 | 51.27223 | 0.33775 | 11283 ft | 317 kts | 76° |
| 2026-04-14 16:47 | 51.28179 | 0.37011 | 11785 ft | 331 kts | 51° |
| 2026-04-14 16:48 | 51.29881 | 0.39464 | 12343 ft | 340 kts | 27° |
| 2026-04-14 16:48 | 51.32094 | 0.40755 | 12891 ft | 340 kts | 5° |
| 2026-04-14 16:48 | 51.34463 | 0.40743 | 13114 ft | 343 kts | 345° |
| 2026-04-14 16:48 | 51.36706 | 0.39555 | 13140 ft | 338 kts | 333° |
| 2026-04-14 16:49 | 51.38841 | 0.37999 | 13126 ft | 336 kts | 332° |
| 2026-04-14 16:49 | 51.40952 | 0.36417 | 13124 ft | 334 kts | 332° |
| 2026-04-14 16:49 | 51.43048 | 0.34821 | 13116 ft | 333 kts | 331° |
| 2026-04-14 16:49 | 51.45094 | 0.33129 | 13115 ft | 328 kts | 326° |
| 2026-04-14 16:50 | 51.46993 | 0.31127 | 13135 ft | 327 kts | 322° |
| 2026-04-14 16:50 | 51.48860 | 0.29039 | 13342 ft | 327 kts | 322° |
| 2026-04-14 16:50 | 51.50720 | 0.26909 | 13772 ft | 331 kts | 321° |
| 2026-04-14 16:50 | 51.52593 | 0.24738 | 14153 ft | 333 kts | 322° |
| 2026-04-14 16:51 | 51.54482 | 0.22533 | 14528 ft | 336 kts | 321° |
| 2026-04-14 16:51 | 51.56388 | 0.20299 | 14889 ft | 339 kts | 321° |
| 2026-04-14 16:51 | 51.58302 | 0.18062 | 15248 ft | 342 kts | 321° |
| 2026-04-14 16:51 | 51.60205 | 0.15822 | 15603 ft | 344 kts | 320° |
| 2026-04-14 16:52 | 51.62112 | 0.13477 | 15977 ft | 345 kts | 319° |
| 2026-04-14 16:52 | 51.64020 | 0.11108 | 16358 ft | 347 kts | 319° |
| 2026-04-14 16:52 | 51.65931 | 0.08706 | 16730 ft | 349 kts | 319° |
| 2026-04-14 16:52 | 51.67849 | 0.06291 | 17128 ft | 351 kts | 319° |
| 2026-04-14 16:53 | 51.69778 | 0.03848 | 17516 ft | 354 kts | 319° |
| 2026-04-14 16:53 | 51.71717 | 0.01385 | 17901 ft | 356 kts | 319° |
| 2026-04-14 16:53 | 51.73664 | -0.01081 | 18271 ft | 359 kts | 319° |
| 2026-04-14 16:53 | 51.75620 | -0.03598 | 18653 ft | 359 kts | 317° |
| 2026-04-14 16:54 | 51.77477 | -0.06295 | 19014 ft | 359 kts | 314° |
| 2026-04-14 16:54 | 51.78666 | -0.08146 | 19239 ft | 359 kts | 313° |
| 2026-04-14 16:54 | 51.80450 | -0.10984 | 19592 ft | 359 kts | 313° |
| 2026-04-14 16:54 | 51.82265 | -0.13719 | 19940 ft | 357 kts | 319° |
| 2026-04-14 16:55 | 51.84303 | -0.16048 | 20349 ft | 360 kts | 324° |
| 2026-04-14 16:55 | 51.86432 | -0.18230 | 20736 ft | 363 kts | 325° |
| 2026-04-14 16:55 | 51.88584 | -0.20380 | 21111 ft | 365 kts | 326° |
| 2026-04-14 16:55 | 51.90755 | -0.22539 | 21503 ft | 367 kts | 326° |
| 2026-04-14 16:56 | 51.92936 | -0.24699 | 21890 ft | 368 kts | 326° |
| 2026-04-14 16:56 | 51.95103 | -0.26839 | 22278 ft | 369 kts | 326° |
| 2026-04-14 16:56 | 51.97332 | -0.29036 | 22683 ft | 371 kts | 326° |
| 2026-04-14 16:56 | 51.99536 | -0.31206 | 23081 ft | 371 kts | 326° |
| 2026-04-14 16:57 | 52.01719 | -0.33353 | 23476 ft | 372 kts | 326° |
| 2026-04-14 16:57 | 52.03933 | -0.35530 | 23837 ft | 372 kts | 326° |
| 2026-04-14 16:57 | 52.06152 | -0.37709 | 24186 ft | 373 kts | 326° |
| 2026-04-14 16:57 | 52.08397 | -0.39915 | 24384 ft | 384 kts | 326° |
| 2026-04-14 16:58 | 52.10737 | -0.42225 | 24498 ft | 402 kts | 326° |
| 2026-04-14 16:58 | 52.13164 | -0.44650 | 24625 ft | 417 kts | 325° |
| 2026-04-14 16:58 | 52.15630 | -0.47245 | 24907 ft | 427 kts | 324° |
| 2026-04-14 16:58 | 52.18130 | -0.49930 | 25352 ft | 432 kts | 324° |
| 2026-04-14 16:59 | 52.20641 | -0.52643 | 25962 ft | 433 kts | 324° |
| 2026-04-14 16:59 | 52.23152 | -0.55370 | 26621 ft | 433 kts | 324° |
| 2026-04-14 16:59 | 52.25664 | -0.58110 | 27230 ft | 434 kts | 324° |
| 2026-04-14 16:59 | 52.28181 | -0.60865 | 27780 ft | 436 kts | 324° |
| 2026-04-14 17:00 | 52.30706 | -0.63633 | 28349 ft | 438 kts | 324° |
| 2026-04-14 17:00 | 52.33241 | -0.66416 | 28894 ft | 440 kts | 324° |
| 2026-04-14 17:00 | 52.35783 | -0.69208 | 29390 ft | 441 kts | 324° |
| 2026-04-14 17:00 | 52.38307 | -0.71989 | 29871 ft | 443 kts | 324° |
| 2026-04-14 17:01 | 52.40856 | -0.74801 | 30447 ft | 440 kts | 323° |
| 2026-04-14 17:01 | 52.43396 | -0.77603 | 31006 ft | 438 kts | 323° |
| 2026-04-14 17:01 | 52.45921 | -0.80378 | 31530 ft | 436 kts | 323° |